sensor_id;sensor_type;location;lat;lon;timestamp;P1;durP1;ratioP1;P2;durP2;ratioP2
20739;SDS011;10530;49.968;19.844;2023-03-31T00:03:23;14.95;;;5.40;;
20739;SDS011;10530;49.968;19.844;2023-03-31T00:08:27;16.85;;;5.97;;
20739;SDS011;10530;49.968;19.844;2023-03-31T00:13:36;11.70;;;4.47;;
20739;SDS011;10530;49.968;19.844;2023-03-31T00:18:40;14.57;;;5.68;;
20739;SDS011;10530;49.968;19.844;2023-03-31T00:23:52;13.93;;;6.28;;
20739;SDS011;10530;49.968;19.844;2023-03-31T00:28:56;15.15;;;5.63;;
20739;SDS011;10530;49.968;19.844;2023-03-31T00:33:59;14.57;;;6.75;;
20739;SDS011;10530;49.968;19.844;2023-03-31T00:39:03;12.37;;;5.33;;
20739;SDS011;10530;49.968;19.844;2023-03-31T00:44:20;10.63;;;5.38;;
20739;SDS011;10530;49.968;19.844;2023-03-31T00:49:28;13.63;;;5.28;;
20739;SDS011;10530;49.968;19.844;2023-03-31T00:54:35;12.55;;;5.20;;
20739;SDS011;10530;49.968;19.844;2023-03-31T00:59:52;11.20;;;5.25;;
20739;SDS011;10530;49.968;19.844;2023-03-31T01:04:59;12.87;;;5.50;;
20739;SDS011;10530;49.968;19.844;2023-03-31T01:10:03;12.45;;;4.50;;
20739;SDS011;10530;49.968;19.844;2023-03-31T01:15:08;12.43;;;5.47;;
20739;SDS011;10530;49.968;19.844;2023-03-31T01:48:04;9.73;;;4.13;;
20739;SDS011;10530;49.968;19.844;2023-03-31T01:53:01;8.25;;;3.38;;
20739;SDS011;10530;49.968;19.844;2023-03-31T01:58:26;6.67;;;3.00;;
20739;SDS011;10530;49.968;19.844;2023-03-31T02:03:54;9.77;;;4.25;;
20739;SDS011;10530;49.968;19.844;2023-03-31T02:09:03;8.20;;;3.05;;
20739;SDS011;10530;49.968;19.844;2023-03-31T02:14:14;8.35;;;3.58;;
20739;SDS011;10530;49.968;19.844;2023-03-31T02:19:31;7.07;;;3.10;;
20739;SDS011;10530;49.968;19.844;2023-03-31T02:24:38;6.97;;;3.10;;
20739;SDS011;10530;49.968;19.844;2023-03-31T02:29:43;6.00;;;2.60;;
20739;SDS011;10530;49.968;19.844;2023-03-31T02:34:46;7.85;;;2.78;;
20739;SDS011;10530;49.968;19.844;2023-03-31T02:39:49;4.82;;;2.50;;
20739;SDS011;10530;49.968;19.844;2023-03-31T02:45:00;7.88;;;2.75;;
20739;SDS011;10530;49.968;19.844;2023-03-31T02:50:05;6.97;;;3.00;;
20739;SDS011;10530;49.968;19.844;2023-03-31T02:55:14;6.00;;;2.35;;
20739;SDS011;10530;49.968;19.844;2023-03-31T03:05:24;5.75;;;2.30;;
20739;SDS011;10530;49.968;19.844;2023-03-31T03:11:20;6.22;;;2.20;;
20739;SDS011;10530;49.968;19.844;2023-03-31T03:16:32;4.70;;;1.80;;
20739;SDS011;10530;49.968;19.844;2023-03-31T03:21:41;5.85;;;2.28;;
20739;SDS011;10530;49.968;19.844;2023-03-31T03:26:43;6.30;;;2.00;;
20739;SDS011;10530;49.968;19.844;2023-03-31T03:31:47;4.32;;;1.75;;
20739;SDS011;10530;49.968;19.844;2023-03-31T03:36:49;6.32;;;2.38;;
20739;SDS011;10530;49.968;19.844;2023-03-31T03:41:52;5.30;;;2.30;;
20739;SDS011;10530;49.968;19.844;2023-03-31T03:46:55;4.97;;;2.20;;
20739;SDS011;10530;49.968;19.844;2023-03-31T03:51:58;5.88;;;2.05;;
20739;SDS011;10530;49.968;19.844;2023-03-31T03:57:01;4.93;;;1.83;;
20739;SDS011;10530;49.968;19.844;2023-03-31T04:02:04;5.88;;;1.60;;
20739;SDS011;10530;49.968;19.844;2023-03-31T04:07:07;5.03;;;1.80;;
20739;SDS011;10530;49.968;19.844;2023-03-31T04:12:10;4.57;;;2.03;;
20739;SDS011;10530;49.968;19.844;2023-03-31T04:17:13;5.10;;;1.98;;
20739;SDS011;10530;49.968;19.844;2023-03-31T04:22:16;6.28;;;1.92;;
20739;SDS011;10530;49.968;19.844;2023-03-31T04:27:21;5.68;;;2.15;;
20739;SDS011;10530;49.968;19.844;2023-03-31T04:32:28;6.13;;;2.10;;
20739;SDS011;10530;49.968;19.844;2023-03-31T04:37:33;5.05;;;1.77;;
20739;SDS011;10530;49.968;19.844;2023-03-31T04:42:36;5.95;;;2.42;;
20739;SDS011;10530;49.968;19.844;2023-03-31T04:47:39;6.18;;;2.50;;
20739;SDS011;10530;49.968;19.844;2023-03-31T04:52:41;6.45;;;2.53;;
20739;SDS011;10530;49.968;19.844;2023-03-31T04:57:44;8.70;;;2.77;;
20739;SDS011;10530;49.968;19.844;2023-03-31T05:02:47;6.53;;;2.97;;
20739;SDS011;10530;49.968;19.844;2023-03-31T05:07:50;8.18;;;2.97;;
20739;SDS011;10530;49.968;19.844;2023-03-31T05:12:53;7.32;;;3.17;;
20739;SDS011;10530;49.968;19.844;2023-03-31T05:17:56;8.65;;;3.75;;
20739;SDS011;10530;49.968;19.844;2023-03-31T05:22:59;9.30;;;3.27;;
20739;SDS011;10530;49.968;19.844;2023-03-31T05:28:03;7.88;;;3.45;;
20739;SDS011;10530;49.968;19.844;2023-03-31T05:33:05;9.10;;;3.42;;
20739;SDS011;10530;49.968;19.844;2023-03-31T05:38:08;9.98;;;3.80;;
20739;SDS011;10530;49.968;19.844;2023-03-31T05:43:11;9.80;;;3.65;;
20739;SDS011;10530;49.968;19.844;2023-03-31T05:48:15;8.77;;;3.47;;
20739;SDS011;10530;49.968;19.844;2023-03-31T05:53:19;8.93;;;4.00;;
20739;SDS011;10530;49.968;19.844;2023-03-31T05:58:21;7.53;;;3.00;;
20739;SDS011;10530;49.968;19.844;2023-03-31T06:03:24;8.65;;;3.83;;
20739;SDS011;10530;49.968;19.844;2023-03-31T06:08:28;7.47;;;3.45;;
20739;SDS011;10530;49.968;19.844;2023-03-31T06:13:31;6.37;;;3.10;;
20739;SDS011;10530;49.968;19.844;2023-03-31T06:18:34;9.48;;;3.40;;
20739;SDS011;10530;49.968;19.844;2023-03-31T06:23:37;7.85;;;3.38;;
20739;SDS011;10530;49.968;19.844;2023-03-31T06:28:41;9.95;;;3.83;;
20739;SDS011;10530;49.968;19.844;2023-03-31T06:33:45;8.57;;;3.53;;
20739;SDS011;10530;49.968;19.844;2023-03-31T06:38:48;8.73;;;3.67;;
20739;SDS011;10530;49.968;19.844;2023-03-31T06:43:52;6.50;;;3.05;;
20739;SDS011;10530;49.968;19.844;2023-03-31T06:48:54;7.15;;;3.42;;
20739;SDS011;10530;49.968;19.844;2023-03-31T06:53:57;8.05;;;3.45;;
20739;SDS011;10530;49.968;19.844;2023-03-31T06:59:00;9.95;;;3.47;;
20739;SDS011;10530;49.968;19.844;2023-03-31T07:04:03;6.53;;;2.57;;
20739;SDS011;10530;49.968;19.844;2023-03-31T07:09:06;4.75;;;2.30;;
20739;SDS011;10530;49.968;19.844;2023-03-31T07:14:09;4.85;;;2.20;;
20739;SDS011;10530;49.968;19.844;2023-03-31T07:19:12;5.85;;;2.33;;
20739;SDS011;10530;49.968;19.844;2023-03-31T07:24:16;6.75;;;2.45;;
20739;SDS011;10530;49.968;19.844;2023-03-31T07:29:19;4.40;;;2.13;;
20739;SDS011;10530;49.968;19.844;2023-03-31T07:34:21;5.57;;;2.25;;
20739;SDS011;10530;49.968;19.844;2023-03-31T07:39:24;5.80;;;2.17;;
20739;SDS011;10530;49.968;19.844;2023-03-31T07:44:27;6.07;;;2.25;;
20739;SDS011;10530;49.968;19.844;2023-03-31T07:49:31;4.80;;;1.90;;
20739;SDS011;10530;49.968;19.844;2023-03-31T07:54:34;5.30;;;2.33;;
20739;SDS011;10530;49.968;19.844;2023-03-31T07:59:38;4.20;;;1.88;;
20739;SDS011;10530;49.968;19.844;2023-03-31T08:04:41;4.88;;;1.45;;
20739;SDS011;10530;49.968;19.844;2023-03-31T08:09:45;3.60;;;1.60;;
20739;SDS011;10530;49.968;19.844;2023-03-31T08:14:48;3.45;;;1.33;;
20739;SDS011;10530;49.968;19.844;2023-03-31T08:19:51;6.83;;;2.13;;
20739;SDS011;10530;49.968;19.844;2023-03-31T08:24:54;3.38;;;1.70;;
20739;SDS011;10530;49.968;19.844;2023-03-31T08:29:57;5.28;;;2.08;;
20739;SDS011;10530;49.968;19.844;2023-03-31T08:35:04;5.45;;;2.22;;
20739;SDS011;10530;49.968;19.844;2023-03-31T08:40:11;5.07;;;1.80;;
20739;SDS011;10530;49.968;19.844;2023-03-31T08:50:42;3.30;;;1.85;;
20739;SDS011;10530;49.968;19.844;2023-03-31T08:55:53;5.45;;;1.80;;
20739;SDS011;10530;49.968;19.844;2023-03-31T09:06:17;3.80;;;1.98;;
20739;SDS011;10530;49.968;19.844;2023-03-31T09:11:52;4.70;;;1.90;;
20739;SDS011;10530;49.968;19.844;2023-03-31T09:22:02;3.85;;;1.70;;
20739;SDS011;10530;49.968;19.844;2023-03-31T09:27:10;4.95;;;1.70;;
20739;SDS011;10530;49.968;19.844;2023-03-31T09:32:20;3.42;;;1.60;;
20739;SDS011;10530;49.968;19.844;2023-03-31T09:37:27;5.97;;;2.13;;
20739;SDS011;10530;49.968;19.844;2023-03-31T09:42:34;4.00;;;1.65;;
20739;SDS011;10530;49.968;19.844;2023-03-31T09:47:42;4.35;;;1.90;;
20739;SDS011;10530;49.968;19.844;2023-03-31T09:52:54;5.22;;;1.40;;
20739;SDS011;10530;49.968;19.844;2023-03-31T09:57:59;3.38;;;1.17;;
20739;SDS011;10530;49.968;19.844;2023-03-31T10:03:03;5.90;;;2.10;;
20739;SDS011;10530;49.968;19.844;2023-03-31T10:13:19;6.18;;;1.60;;
20739;SDS011;10530;49.968;19.844;2023-03-31T10:18:31;4.93;;;2.00;;
20739;SDS011;10530;49.968;19.844;2023-03-31T10:23:37;4.50;;;1.70;;
20739;SDS011;10530;49.968;19.844;2023-03-31T10:28:40;4.00;;;1.57;;
20739;SDS011;10530;49.968;19.844;2023-03-31T10:33:43;5.15;;;1.80;;
20739;SDS011;10530;49.968;19.844;2023-03-31T10:38:51;3.65;;;1.13;;
20739;SDS011;10530;49.968;19.844;2023-03-31T10:43:55;3.35;;;1.33;;
20739;SDS011;10530;49.968;19.844;2023-03-31T10:48:59;5.03;;;2.00;;
20739;SDS011;10530;49.968;19.844;2023-03-31T10:54:14;4.23;;;1.80;;
20739;SDS011;10530;49.968;19.844;2023-03-31T11:05:05;4.75;;;1.63;;
20739;SDS011;10530;49.968;19.844;2023-03-31T11:10:33;4.68;;;1.50;;
20739;SDS011;10530;49.968;19.844;2023-03-31T11:16:05;3.20;;;1.20;;
20739;SDS011;10530;49.968;19.844;2023-03-31T11:21:27;6.20;;;1.60;;
20739;SDS011;10530;49.968;19.844;2023-03-31T11:38:31;3.42;;;1.30;;
20739;SDS011;10530;49.968;19.844;2023-03-31T11:44:02;5.20;;;1.40;;
20739;SDS011;10530;49.968;19.844;2023-03-31T11:49:14;4.10;;;1.67;;
20739;SDS011;10530;49.968;19.844;2023-03-31T11:59:48;3.33;;;1.30;;
20739;SDS011;10530;49.968;19.844;2023-03-31T12:04:59;3.95;;;1.30;;
20739;SDS011;10530;49.968;19.844;2023-03-31T12:10:17;3.65;;;1.20;;
20739;SDS011;10530;49.968;19.844;2023-03-31T12:15:32;4.03;;;1.33;;
20739;SDS011;10530;49.968;19.844;2023-03-31T12:20:51;5.68;;;1.58;;
20739;SDS011;10530;49.968;19.844;2023-03-31T12:31:39;5.20;;;1.65;;
20739;SDS011;10530;49.968;19.844;2023-03-31T12:53:34;4.00;;;1.33;;
20739;SDS011;10530;49.968;19.844;2023-03-31T12:58:43;4.22;;;1.50;;
20739;SDS011;10530;49.968;19.844;2023-03-31T13:04:20;3.22;;;1.02;;
20739;SDS011;10530;49.968;19.844;2023-03-31T13:14:41;3.95;;;1.08;;
20739;SDS011;10530;49.968;19.844;2023-03-31T13:19:47;3.70;;;1.30;;
20739;SDS011;10530;49.968;19.844;2023-03-31T13:24:50;3.95;;;0.93;;
20739;SDS011;10530;49.968;19.844;2023-03-31T13:29:53;6.00;;;1.10;;
20739;SDS011;10530;49.968;19.844;2023-03-31T13:45:36;3.33;;;1.13;;
20739;SDS011;10530;49.968;19.844;2023-03-31T14:06:58;5.53;;;1.33;;
20739;SDS011;10530;49.968;19.844;2023-03-31T14:12:24;3.88;;;1.10;;
20739;SDS011;10530;49.968;19.844;2023-03-31T14:17:38;3.60;;;0.80;;
20739;SDS011;10530;49.968;19.844;2023-03-31T14:22:46;4.13;;;1.13;;
20739;SDS011;10530;49.968;19.844;2023-03-31T14:38:47;2.80;;;0.82;;
20739;SDS011;10530;49.968;19.844;2023-03-31T14:43:50;3.70;;;0.85;;
20739;SDS011;10530;49.968;19.844;2023-03-31T14:48:54;2.95;;;0.70;;
20739;SDS011;10530;49.968;19.844;2023-03-31T14:53:57;4.40;;;0.80;;
20739;SDS011;10530;49.968;19.844;2023-03-31T14:59:01;2.33;;;0.63;;
20739;SDS011;10530;49.968;19.844;2023-03-31T15:04:06;3.92;;;0.95;;
20739;SDS011;10530;49.968;19.844;2023-03-31T15:09:19;4.50;;;1.00;;
20739;SDS011;10530;49.968;19.844;2023-03-31T15:14:31;4.28;;;1.30;;
20739;SDS011;10530;49.968;19.844;2023-03-31T15:19:37;3.73;;;1.23;;
20739;SDS011;10530;49.968;19.844;2023-03-31T15:24:40;4.30;;;1.00;;
20739;SDS011;10530;49.968;19.844;2023-03-31T15:29:45;3.60;;;0.82;;
20739;SDS011;10530;49.968;19.844;2023-03-31T15:34:50;4.15;;;1.20;;
20739;SDS011;10530;49.968;19.844;2023-03-31T15:39:54;4.70;;;1.13;;
20739;SDS011;10530;49.968;19.844;2023-03-31T15:50:40;4.72;;;1.25;;
20739;SDS011;10530;49.968;19.844;2023-03-31T15:55:43;5.32;;;1.45;;
20739;SDS011;10530;49.968;19.844;2023-03-31T16:00:46;3.53;;;1.20;;
20739;SDS011;10530;49.968;19.844;2023-03-31T16:05:54;4.97;;;1.83;;
20739;SDS011;10530;49.968;19.844;2023-03-31T16:11:02;5.33;;;2.03;;
20739;SDS011;10530;49.968;19.844;2023-03-31T16:16:11;4.95;;;1.60;;
20739;SDS011;10530;49.968;19.844;2023-03-31T16:21:21;4.43;;;1.30;;
20739;SDS011;10530;49.968;19.844;2023-03-31T16:26:30;4.65;;;1.73;;
20739;SDS011;10530;49.968;19.844;2023-03-31T16:31:37;4.50;;;1.85;;
20739;SDS011;10530;49.968;19.844;2023-03-31T16:36:41;6.17;;;1.60;;
20739;SDS011;10530;49.968;19.844;2023-03-31T16:41:44;6.18;;;2.30;;
20739;SDS011;10530;49.968;19.844;2023-03-31T16:46:47;6.25;;;2.13;;
20739;SDS011;10530;49.968;19.844;2023-03-31T16:51:49;7.35;;;2.30;;
20739;SDS011;10530;49.968;19.844;2023-03-31T16:56:53;9.32;;;2.78;;
20739;SDS011;10530;49.968;19.844;2023-03-31T17:01:56;7.90;;;2.80;;
20739;SDS011;10530;49.968;19.844;2023-03-31T17:06:59;7.82;;;3.30;;
20739;SDS011;10530;49.968;19.844;2023-03-31T17:12:01;8.05;;;2.75;;
20739;SDS011;10530;49.968;19.844;2023-03-31T17:17:04;9.75;;;2.83;;
20739;SDS011;10530;49.968;19.844;2023-03-31T17:22:07;11.75;;;3.25;;
20739;SDS011;10530;49.968;19.844;2023-03-31T17:27:11;7.90;;;3.50;;
20739;SDS011;10530;49.968;19.844;2023-03-31T17:32:14;10.52;;;3.40;;
20739;SDS011;10530;49.968;19.844;2023-03-31T17:37:18;10.15;;;3.25;;
20739;SDS011;10530;49.968;19.844;2023-03-31T17:42:21;10.70;;;3.70;;
20739;SDS011;10530;49.968;19.844;2023-03-31T17:47:24;10.38;;;3.75;;
20739;SDS011;10530;49.968;19.844;2023-03-31T17:52:28;13.00;;;4.27;;
20739;SDS011;10530;49.968;19.844;2023-03-31T17:57:31;9.38;;;3.50;;
20739;SDS011;10530;49.968;19.844;2023-03-31T18:02:35;16.77;;;4.30;;
20739;SDS011;10530;49.968;19.844;2023-03-31T18:07:38;11.60;;;4.38;;
20739;SDS011;10530;49.968;19.844;2023-03-31T18:12:42;10.85;;;4.05;;
20739;SDS011;10530;49.968;19.844;2023-03-31T18:17:45;10.40;;;4.50;;
20739;SDS011;10530;49.968;19.844;2023-03-31T18:22:48;7.22;;;3.30;;
20739;SDS011;10530;49.968;19.844;2023-03-31T18:27:52;10.38;;;3.20;;
20739;SDS011;10530;49.968;19.844;2023-03-31T18:32:55;9.55;;;3.53;;
20739;SDS011;10530;49.968;19.844;2023-03-31T18:37:58;9.30;;;3.40;;
20739;SDS011;10530;49.968;19.844;2023-03-31T18:43:01;9.63;;;3.50;;
20739;SDS011;10530;49.968;19.844;2023-03-31T18:48:04;11.70;;;3.22;;
20739;SDS011;10530;49.968;19.844;2023-03-31T18:53:07;7.28;;;2.75;;
20739;SDS011;10530;49.968;19.844;2023-03-31T18:58:10;8.55;;;3.22;;
20739;SDS011;10530;49.968;19.844;2023-03-31T19:03:13;11.50;;;3.90;;
20739;SDS011;10530;49.968;19.844;2023-03-31T19:08:16;12.97;;;3.90;;
20739;SDS011;10530;49.968;19.844;2023-03-31T19:13:19;20.52;;;5.50;;
20739;SDS011;10530;49.968;19.844;2023-03-31T19:18:22;20.30;;;5.53;;
20739;SDS011;10530;49.968;19.844;2023-03-31T19:23:28;10.52;;;3.92;;
20739;SDS011;10530;49.968;19.844;2023-03-31T19:28:32;10.45;;;4.05;;
20739;SDS011;10530;49.968;19.844;2023-03-31T19:33:35;11.07;;;3.97;;
20739;SDS011;10530;49.968;19.844;2023-03-31T19:38:38;9.95;;;4.20;;
20739;SDS011;10530;49.968;19.844;2023-03-31T19:43:41;11.70;;;4.07;;
20739;SDS011;10530;49.968;19.844;2023-03-31T19:48:44;8.35;;;3.33;;
20739;SDS011;10530;49.968;19.844;2023-03-31T19:53:47;8.60;;;4.05;;
20739;SDS011;10530;49.968;19.844;2023-03-31T19:58:50;10.07;;;3.70;;
20739;SDS011;10530;49.968;19.844;2023-03-31T20:03:53;12.48;;;3.88;;
20739;SDS011;10530;49.968;19.844;2023-03-31T20:08:58;7.45;;;3.80;;
20739;SDS011;10530;49.968;19.844;2023-03-31T20:14:02;10.30;;;3.55;;
20739;SDS011;10530;49.968;19.844;2023-03-31T20:19:23;11.40;;;4.38;;
20739;SDS011;10530;49.968;19.844;2023-03-31T20:25:16;9.27;;;3.57;;
20739;SDS011;10530;49.968;19.844;2023-03-31T20:30:19;8.77;;;3.90;;
20739;SDS011;10530;49.968;19.844;2023-03-31T20:35:22;10.45;;;4.15;;
20739;SDS011;10530;49.968;19.844;2023-03-31T20:40:25;11.10;;;4.47;;
20739;SDS011;10530;49.968;19.844;2023-03-31T20:45:28;9.05;;;3.70;;
20739;SDS011;10530;49.968;19.844;2023-03-31T20:50:32;8.77;;;3.23;;
20739;SDS011;10530;49.968;19.844;2023-03-31T20:55:39;7.75;;;2.88;;
20739;SDS011;10530;49.968;19.844;2023-03-31T21:00:42;8.32;;;3.30;;
20739;SDS011;10530;49.968;19.844;2023-03-31T21:05:45;9.02;;;4.03;;
20739;SDS011;10530;49.968;19.844;2023-03-31T21:10:48;14.65;;;5.78;;
20739;SDS011;10530;49.968;19.844;2023-03-31T21:15:51;14.20;;;5.13;;
20739;SDS011;10530;49.968;19.844;2023-03-31T21:20:57;11.80;;;3.95;;
20739;SDS011;10530;49.968;19.844;2023-03-31T21:26:03;9.75;;;3.35;;
20739;SDS011;10530;49.968;19.844;2023-03-31T21:31:08;7.53;;;3.35;;
20739;SDS011;10530;49.968;19.844;2023-03-31T21:36:15;9.35;;;3.65;;
20739;SDS011;10530;49.968;19.844;2023-03-31T21:41:21;7.17;;;3.20;;
20739;SDS011;10530;49.968;19.844;2023-03-31T21:46:26;8.00;;;2.95;;
20739;SDS011;10530;49.968;19.844;2023-03-31T21:51:30;8.65;;;2.60;;
20739;SDS011;10530;49.968;19.844;2023-03-31T21:56:33;9.27;;;2.70;;
20739;SDS011;10530;49.968;19.844;2023-03-31T22:01:35;5.75;;;2.53;;
20739;SDS011;10530;49.968;19.844;2023-03-31T22:06:38;4.60;;;1.60;;
20739;SDS011;10530;49.968;19.844;2023-03-31T22:11:41;3.63;;;1.20;;
20739;SDS011;10530;49.968;19.844;2023-03-31T22:16:44;3.13;;;0.80;;
20739;SDS011;10530;49.968;19.844;2023-03-31T22:21:46;4.43;;;0.70;;
20739;SDS011;10530;49.968;19.844;2023-03-31T22:26:50;3.45;;;0.90;;
20739;SDS011;10530;49.968;19.844;2023-03-31T22:31:53;2.60;;;0.80;;
20739;SDS011;10530;49.968;19.844;2023-03-31T22:36:56;2.78;;;1.00;;
20739;SDS011;10530;49.968;19.844;2023-03-31T22:41:59;2.78;;;0.63;;
20739;SDS011;10530;49.968;19.844;2023-03-31T22:47:02;6.10;;;0.75;;
20739;SDS011;10530;49.968;19.844;2023-03-31T22:52:05;2.65;;;0.70;;
20739;SDS011;10530;49.968;19.844;2023-03-31T22:57:08;2.17;;;0.50;;
20739;SDS011;10530;49.968;19.844;2023-03-31T23:02:11;2.15;;;0.55;;
20739;SDS011;10530;49.968;19.844;2023-03-31T23:07:14;4.68;;;1.00;;
20739;SDS011;10530;49.968;19.844;2023-03-31T23:12:17;2.95;;;0.82;;
20739;SDS011;10530;49.968;19.844;2023-03-31T23:17:20;5.47;;;0.90;;
20739;SDS011;10530;49.968;19.844;2023-03-31T23:22:23;3.43;;;0.90;;
20739;SDS011;10530;49.968;19.844;2023-03-31T23:27:26;2.20;;;0.70;;
20739;SDS011;10530;49.968;19.844;2023-03-31T23:32:29;2.65;;;0.52;;
20739;SDS011;10530;49.968;19.844;2023-03-31T23:37:32;2.50;;;0.90;;
20739;SDS011;10530;49.968;19.844;2023-03-31T23:42:34;4.10;;;1.30;;
20739;SDS011;10530;49.968;19.844;2023-03-31T23:47:37;4.17;;;1.00;;
20739;SDS011;10530;49.968;19.844;2023-03-31T23:52:42;3.35;;;1.13;;
20739;SDS011;10530;49.968;19.844;2023-03-31T23:57:44;2.30;;;0.70;;
